Terminal Aerodrome Forecast
Issued by NWS

Home | Current Version | Previous Version | Graphics & Text | Print | Product List | Glossary On
Versions: 1 2 3 4 5 6 7 8 9 10 11 12
000
FTUS43 KMPX 301138
TAFAXN
TAF
KAXN 301138Z 3012/0112 05007KT P6SM SCT060
     FM302200 08005KT P6SM BKN150
     FM010400 12005KT P6SM BKN120=

USA.gov is the U.S. government's official web portal to all federal, state and local government web resources and services.